Time;durP1;ratioP1;P1;durP2;ratioP2;P2;SDS_P1;SDS_P2;PMS_P1;PMS_P2;Temp;Humidity;BMP_temperature;BMP_pressure;BME280_temperature;BME280_humidity;BME280_pressure;Samples;Min_cycle;Max_cycle;Signal;HPM_P1;HPM_P2
2022/09/04 00:00:32;;;;;;;4.13;3.93;;;;;;;;;;5002220;28;20719;-60
2022/09/04 00:03:12;;;;;;;3.87;3.63;;;;;;;;;;4988452;28;20603;-60
2022/09/04 00:05:41;;;;;;;3.73;3.53;;;;;;;;;;4989290;28;20715;-60
2022/09/04 00:08:13;;;;;;;4.03;3.73;;;;;;;;;;4990163;28;20233;-59
2022/09/04 00:10:50;;;;;;;4.07;3.80;;;;;;;;;;4999286;28;20676;-61
2022/09/04 00:13:26;;;;;;;3.73;3.43;;;;;;;;;;5003600;28;20458;-60
2022/09/04 00:16:10;;;;;;;3.67;3.47;;;;;;;;;;4995275;28;20198;-61
2022/09/04 00:18:40;;;;;;;4.07;3.77;;;;;;;;;;4991517;28;20551;-61
2022/09/04 00:21:06;;;;;;;3.53;3.33;;;;;;;;;;5007487;28;20187;-61
2022/09/04 00:24:04;;;;;;;3.70;3.40;;;;;;;;;;5002416;28;20185;-61
2022/09/04 00:26:47;;;;;;;3.43;3.23;;;;;;;;;;4963206;28;20199;-61
2022/09/04 00:29:21;;;;;;;3.57;3.37;;;;;;;;;;4996877;28;20183;-61
2022/09/04 00:31:52;;;;;;;3.97;3.77;;;;;;;;;;4992172;28;20270;-61
2022/09/04 00:34:18;;;;;;;3.90;3.70;;;;;;;;;;4996488;28;20187;-61
2022/09/04 00:36:46;;;;;;;3.70;3.40;;;;;;;;;;4992327;28;20182;-60
2022/09/04 00:39:15;;;;;;;3.50;3.30;;;;;;;;;;4999981;28;20262;-61
2022/09/04 00:41:48;;;;;;;3.60;3.40;;;;;;;;;;4993467;28;20717;-61
2022/09/04 00:44:27;;;;;;;3.67;3.47;;;;;;;;;;4993573;28;20192;-61
2022/09/04 00:46:53;;;;;;;3.87;3.67;;;;;;;;;;4994076;28;20182;-61
2022/09/04 00:49:35;;;;;;;3.37;3.17;;;;;;;;;;4974186;28;20210;-61
2022/09/04 00:52:01;;;;;;;3.60;3.30;;;;;;;;;;4994083;28;20204;-61
2022/09/04 00:54:46;;;;;;;3.67;3.47;;;;;;;;;;4993254;28;20181;-62
2022/09/04 00:57:32;;;;;;;4.23;3.93;;;;;;;;;;4997564;28;20175;-62
2022/09/04 01:00:06;;;;;;;3.40;3.20;;;;;;;;;;5002184;28;20301;-61
2022/09/04 01:02:57;;;;;;;3.83;3.53;;;;;;;;;;4989620;28;20264;-61
2022/09/04 01:05:44;;;;;;;3.83;3.63;;;;;;;;;;5001230;28;20771;-61
2022/09/04 01:08:29;;;;;;;3.90;3.60;;;;;;;;;;4999127;28;20671;-62
2022/09/04 01:11:01;;;;;;;3.67;3.47;;;;;;;;;;5006985;28;20613;-61
2022/09/04 01:13:42;;;;;;;3.30;3.10;;;;;;;;;;5005915;28;20253;-62
2022/09/04 01:16:17;;;;;;;4.27;3.97;;;;;;;;;;4987398;28;20658;-61
2022/09/04 01:18:57;;;;;;;4.20;3.90;;;;;;;;;;4988697;28;20542;-61
2022/09/04 01:21:50;;;;;;;3.93;3.73;;;;;;;;;;5006695;28;20593;-62
2022/09/04 01:24:16;;;;;;;3.40;3.20;;;;;;;;;;4996037;28;20674;-62
2022/09/04 01:26:42;;;;;;;3.70;3.40;;;;;;;;;;5007503;28;20212;-61
2022/09/04 01:29:27;;;;;;;3.90;3.70;;;;;;;;;;5001273;28;21637;-61
2022/09/04 01:32:12;;;;;;;3.20;3.00;;;;;;;;;;4987691;28;20204;-61
2022/09/04 01:34:48;;;;;;;3.70;3.50;;;;;;;;;;4995224;28;20193;-61
2022/09/04 01:37:32;;;;;;;3.80;3.53;;;;;;;;;;5006707;28;20193;-61
2022/09/04 01:40:19;;;;;;;3.55;3.35;;;;;;;;;;4989830;28;20439;-61
2022/09/04 01:42:50;;;;;;;3.40;3.20;;;;;;;;;;4969578;28;20718;-61
2022/09/04 01:45:23;;;;;;;3.30;3.10;;;;;;;;;;4993738;28;20187;-60
2022/09/04 01:47:51;;;;;;;3.20;3.00;;;;;;;;;;4984470;28;20549;-60
2022/09/04 01:50:22;;;;;;;3.00;2.80;;;;;;;;;;4987822;28;20226;-60
2022/09/04 01:52:53;;;;;;;3.57;3.37;;;;;;;;;;4994187;28;20672;-61
2022/09/04 01:55:35;;;;;;;3.17;2.97;;;;;;;;;;5003231;28;20538;-60
2022/09/04 01:58:22;;;;;;;3.00;2.80;;;;;;;;;;5001069;28;20651;-60
2022/09/04 02:00:51;;;;;;;3.33;3.00;;;;;;;;;;4997226;28;20724;-60
2022/09/04 02:03:38;;;;;;;10.20;9.70;;;;;;;;;;5002227;28;21607;-59
2022/09/04 02:06:10;;;;;;;3.50;3.30;;;;;;;;;;4998449;28;20210;-60
2022/09/04 02:08:58;;;;;;;4.10;3.90;;;;;;;;;;4985961;28;20768;-59
2022/09/04 02:11:26;;;;;;;3.53;3.27;;;;;;;;;;4988019;28;20703;-60
2022/09/04 02:14:03;;;;;;;3.50;3.23;;;;;;;;;;4999442;28;20198;-60
2022/09/04 02:16:48;;;;;;;3.50;3.30;;;;;;;;;;4989151;28;20222;-60
2022/09/04 02:19:20;;;;;;;3.40;3.20;;;;;;;;;;4985891;28;20179;-60
2022/09/04 02:21:56;;;;;;;3.60;3.40;;;;;;;;;;5003178;28;20650;-60
2022/09/04 02:24:25;;;;;;;3.73;3.43;;;;;;;;;;4991187;28;20236;-60
2022/09/04 02:26:57;;;;;;;3.20;3.10;;;;;;;;;;4988488;28;20183;-60
2022/09/04 02:29:36;;;;;;;3.67;3.47;;;;;;;;;;4998147;28;20182;-60
2022/09/04 02:32:05;;;;;;;3.83;3.43;;;;;;;;;;4994409;28;20203;-60
2022/09/04 02:34:37;;;;;;;3.30;3.00;;;;;;;;;;4998007;28;20688;-60
2022/09/04 02:37:03;;;;;;;3.67;3.47;;;;;;;;;;5006386;28;20214;-60
2022/09/04 02:39:39;;;;;;;3.83;3.63;;;;;;;;;;4993471;28;20175;-60
2022/09/04 02:42:11;;;;;;;3.53;3.33;;;;;;;;;;5009323;28;20205;-58
2022/09/04 02:44:37;;;;;;;3.93;3.50;;;;;;;;;;4977697;28;20345;-60
2022/09/04 02:47:11;;;;;;;3.63;3.43;;;;;;;;;;4986536;28;20206;-60
2022/09/04 02:49:42;;;;;;;3.20;3.10;;;;;;;;;;4995330;28;20280;-60
2022/09/04 02:52:11;;;;;;;3.20;3.00;;;;;;;;;;4992139;28;20214;-60
2022/09/04 02:54:47;;;;;;;3.53;3.33;;;;;;;;;;4997872;28;20179;-60
2022/09/04 02:57:28;;;;;;;3.87;3.67;;;;;;;;;;4978517;28;20261;-61
2022/09/04 03:00:07;;;;;;;3.77;3.53;;;;;;;;;;4996795;28;20216;-60
2022/09/04 03:02:56;;;;;;;4.00;3.80;;;;;;;;;;4995102;28;20189;-60
2022/09/04 03:05:24;;;;;;;3.80;3.60;;;;;;;;;;4989122;28;20218;-60
2022/09/04 03:08:02;;;;;;;3.80;3.60;;;;;;;;;;4994067;28;20190;-61
2022/09/04 03:10:36;;;;;;;3.50;3.30;;;;;;;;;;4999985;28;20631;-60
2022/09/04 03:13:07;;;;;;;3.97;3.77;;;;;;;;;;5005731;28;20576;-60
2022/09/04 03:15:33;;;;;;;3.20;3.00;;;;;;;;;;4997705;28;20211;-60
2022/09/04 03:18:06;;;;;;;3.83;3.63;;;;;;;;;;4988923;28;20664;-61
2022/09/04 03:20:36;;;;;;;3.43;3.23;;;;;;;;;;5001152;28;20205;-61
2022/09/04 03:23:15;;;;;;;3.83;3.63;;;;;;;;;;4976348;28;20650;-60
2022/09/04 03:25:44;;;;;;;3.30;3.10;;;;;;;;;;5007683;28;20184;-61
2022/09/04 03:28:14;;;;;;;3.63;3.43;;;;;;;;;;5009366;28;20172;-61
2022/09/04 03:30:40;;;;;;;3.83;3.63;;;;;;;;;;5001009;28;20201;-61
2022/09/04 03:33:14;;;;;;;7.07;6.73;;;;;;;;;;4989943;28;20192;-61
2022/09/04 03:35:58;;;;;;;4.30;3.93;;;;;;;;;;5008789;28;20182;-61
2022/09/04 03:38:24;;;;;;;3.67;3.47;;;;;;;;;;5000055;28;20694;-62
2022/09/04 03:41:03;;;;;;;4.07;3.87;;;;;;;;;;5008883;28;20583;-61
2022/09/04 03:43:35;;;;;;;3.77;3.57;;;;;;;;;;5004956;28;20241;-61
2022/09/04 03:46:04;;;;;;;3.47;3.27;;;;;;;;;;4999767;28;20227;-60
2022/09/04 03:48:49;;;;;;;3.57;3.37;;;;;;;;;;4991847;28;20600;-61
2022/09/04 03:51:33;;;;;;;3.73;3.53;;;;;;;;;;4996380;28;20275;-61
2022/09/04 03:54:05;;;;;;;3.53;3.33;;;;;;;;;;4987640;28;20191;-61
2022/09/04 03:56:54;;;;;;;3.57;3.37;;;;;;;;;;5001828;28;20184;-61
2022/09/04 03:59:24;;;;;;;3.77;3.57;;;;;;;;;;4998222;28;20578;-60
2022/09/04 04:02:08;;;;;;;3.80;3.50;;;;;;;;;;4994435;28;20638;-62
2022/09/04 04:04:46;;;;;;;3.80;3.60;;;;;;;;;;4994797;28;20312;-62
2022/09/04 04:07:22;;;;;;;12.87;12.27;;;;;;;;;;5004186;28;20183;-62
2022/09/04 04:09:48;;;;;;;3.27;3.07;;;;;;;;;;4996590;28;20614;-61
2022/09/04 04:12:26;;;;;;;3.50;3.30;;;;;;;;;;5000730;28;20232;-61
2022/09/04 04:14:58;;;;;;;3.63;3.33;;;;;;;;;;4998021;28;20189;-62
2022/09/04 04:17:25;;;;;;;3.70;3.50;;;;;;;;;;5007055;28;20239;-62
2022/09/04 04:19:51;;;;;;;4.07;3.77;;;;;;;;;;4997123;28;20182;-62
2022/09/04 04:22:17;;;;;;;3.40;3.20;;;;;;;;;;4998630;28;20222;-61
2022/09/04 04:24:56;;;;;;;3.93;3.73;;;;;;;;;;4986605;28;20708;-62
2022/09/04 04:27:25;;;;;;;4.27;4.00;;;;;;;;;;5009662;28;20210;-62
2022/09/04 04:30:06;;;;;;;3.60;3.40;;;;;;;;;;4996450;28;20240;-61
2022/09/04 04:32:35;;;;;;;8.60;8.10;;;;;;;;;;5005608;28;20281;-61
2022/09/04 04:35:02;;;;;;;3.70;3.40;;;;;;;;;;5004287;28;20182;-61
2022/09/04 04:37:49;;;;;;;3.73;3.53;;;;;;;;;;4996335;28;20185;-61
2022/09/04 04:40:27;;;;;;;3.70;3.40;;;;;;;;;;5000435;28;20271;-61
2022/09/04 04:43:14;;;;;;;3.57;3.37;;;;;;;;;;5008936;28;20308;-61
2022/09/04 04:45:50;;;;;;;3.63;3.43;;;;;;;;;;5001206;28;20189;-61
2022/09/04 04:48:19;;;;;;;3.40;3.10;;;;;;;;;;5003529;28;20266;-61
2022/09/04 04:50:46;;;;;;;3.30;3.10;;;;;;;;;;5004667;28;20665;-60
2022/09/04 04:53:21;;;;;;;3.87;3.67;;;;;;;;;;5003131;28;20630;-59
2022/09/04 04:55:56;;;;;;;3.67;3.43;;;;;;;;;;5000089;28;20258;-60
2022/09/04 04:58:37;;;;;;;3.33;3.13;;;;;;;;;;4990327;28;20244;-59
2022/09/04 05:01:08;;;;;;;3.33;3.13;;;;;;;;;;4997658;28;20511;-60
2022/09/04 05:03:53;;;;;;;3.27;3.07;;;;;;;;;;4994549;28;20709;-61
2022/09/04 05:06:37;;;;;;;3.93;3.63;;;;;;;;;;5005043;28;20213;-60
2022/09/04 05:09:04;;;;;;;3.80;3.50;;;;;;;;;;4999335;28;20178;-60
2022/09/04 05:11:39;;;;;;;3.50;3.30;;;;;;;;;;5009403;28;20289;-60
2022/09/04 05:14:27;;;;;;;3.43;3.20;;;;;;;;;;4998790;28;20207;-61
2022/09/04 05:17:05;;;;;;;3.53;3.27;;;;;;;;;;4989758;28;20690;-60
2022/09/04 05:19:51;;;;;;;3.50;3.30;;;;;;;;;;4988630;28;20311;-60
2022/09/04 05:22:25;;;;;;;3.93;3.63;;;;;;;;;;4986772;28;20656;-61
2022/09/04 05:25:09;;;;;;;4.10;3.90;;;;;;;;;;4988997;28;20217;-61
2022/09/04 05:27:44;;;;;;;3.50;3.20;;;;;;;;;;5009703;28;20159;-61
2022/09/04 05:30:10;;;;;;;3.37;3.17;;;;;;;;;;5000542;28;20237;-59
2022/09/04 05:32:59;;;;;;;3.50;3.30;;;;;;;;;;4989294;28;20301;-61
2022/09/04 05:35:42;;;;;;;2.93;2.73;;;;;;;;;;4985092;28;20193;-60
2022/09/04 05:38:13;;;;;;;3.60;3.40;;;;;;;;;;4990869;28;20193;-61
2022/09/04 05:40:49;;;;;;;3.90;3.70;;;;;;;;;;4993811;28;20317;-61
2022/09/04 05:43:22;;;;;;;3.10;2.90;;;;;;;;;;4995841;28;20278;-60
2022/09/04 05:46:01;;;;;;;3.47;3.17;;;;;;;;;;4988749;28;20239;-59
2022/09/04 05:48:46;;;;;;;3.43;3.23;;;;;;;;;;4987690;28;20184;-61
2022/09/04 05:51:15;;;;;;;3.67;3.47;;;;;;;;;;4986116;28;20201;-62
2022/09/04 05:54:07;;;;;;;3.13;2.90;;;;;;;;;;4999607;28;22089;-61
2022/09/04 05:56:45;;;;;;;3.10;2.90;;;;;;;;;;4954368;28;20244;-61
2022/09/04 05:59:27;;;;;;;3.50;3.30;;;;;;;;;;4990386;28;20232;-62
2022/09/04 06:02:17;;;;;;;3.13;2.93;;;;;;;;;;4988559;28;20168;-60
2022/09/04 06:04:52;;;;;;;3.03;2.83;;;;;;;;;;4988112;28;20386;-60
2022/09/04 06:07:28;;;;;;;3.40;3.20;;;;;;;;;;4988437;28;20203;-61
2022/09/04 06:10:33;;;;;;;3.50;3.30;;;;;;;;;;4996773;28;20754;-61
2022/09/04 06:13:12;;;;;;;3.10;2.90;;;;;;;;;;4909407;29;20190;-61
2022/09/04 06:15:56;;;;;;;3.60;3.30;;;;;;;;;;4907872;29;20298;-62
2022/09/04 06:18:22;;;;;;;3.63;3.33;;;;;;;;;;4951837;28;20654;-61
2022/09/04 06:21:04;;;;;;;3.80;2.90;;;;;;;;;;4974919;28;20202;-60
2022/09/04 06:23:48;;;;;;;3.40;3.10;;;;;;;;;;4976884;28;20625;-61
2022/09/04 06:26:19;;;;;;;3.33;3.13;;;;;;;;;;4977685;28;20674;-61
2022/09/04 06:28:45;;;;;;;4.20;3.90;;;;;;;;;;4978132;28;20219;-61
2022/09/04 06:31:20;;;;;;;3.23;3.00;;;;;;;;;;4976213;28;20705;-61
2022/09/04 06:33:59;;;;;;;3.17;2.97;;;;;;;;;;4976419;28;20183;-61
2022/09/04 06:36:32;;;;;;;3.67;3.47;;;;;;;;;;4972671;28;20179;-61
2022/09/04 06:38:58;;;;;;;3.20;3.00;;;;;;;;;;4970287;28;20190;-60
2022/09/04 06:41:48;;;;;;;3.30;3.10;;;;;;;;;;4969610;28;20188;-61
2022/09/04 06:44:32;;;;;;;3.67;3.47;;;;;;;;;;4972567;28;20311;-61
2022/09/04 06:47:17;;;;;;;3.40;3.10;;;;;;;;;;4984378;28;20238;-63
2022/09/04 06:50:03;;;;;;;4.60;4.30;;;;;;;;;;4975936;28;20182;-64
2022/09/04 06:52:36;;;;;;;4.20;3.90;;;;;;;;;;4979587;28;20511;-63
2022/09/04 06:55:17;;;;;;;4.37;4.07;;;;;;;;;;5000164;28;20167;-59
2022/09/04 06:57:57;;;;;;;4.47;4.07;;;;;;;;;;4980228;28;20171;-63
2022/09/04 07:00:23;;;;;;;4.10;3.80;;;;;;;;;;4982538;28;20797;-64
2022/09/04 07:02:53;;;;;;;4.20;3.90;;;;;;;;;;5004160;28;20207;-66
2022/09/04 07:05:22;;;;;;;4.13;3.83;;;;;;;;;;4994149;28;20595;-66
2022/09/04 07:08:03;;;;;;;3.70;3.50;;;;;;;;;;4973671;28;20370;-69
2022/09/04 07:10:34;;;;;;;4.10;3.80;;;;;;;;;;4983791;28;20446;-66
2022/09/04 07:13:22;;;;;;;4.43;4.13;;;;;;;;;;4985488;28;20183;-67
2022/09/04 07:15:55;;;;;;;4.10;3.80;;;;;;;;;;4994652;28;20230;-68
2022/09/04 07:18:40;;;;;;;4.60;4.20;;;;;;;;;;4991472;28;20175;-65
2022/09/04 07:21:14;;;;;;;3.93;3.63;;;;;;;;;;5001388;28;20183;-62
2022/09/04 07:23:40;;;;;;;3.93;3.63;;;;;;;;;;4990337;28;20188;-62
2022/09/04 07:26:27;;;;;;;4.00;3.70;;;;;;;;;;4989945;28;20259;-60
2022/09/04 07:29:02;;;;;;;3.63;3.43;;;;;;;;;;4999784;28;20308;-62
2022/09/04 07:31:41;;;;;;;3.90;3.70;;;;;;;;;;4992701;28;20201;-60
2022/09/04 07:34:21;;;;;;;3.50;3.30;;;;;;;;;;4991952;28;20700;-60
2022/09/04 07:36:50;;;;;;;4.40;4.10;;;;;;;;;;5002292;28;20378;-59
2022/09/04 07:39:16;;;;;;;4.60;4.30;;;;;;;;;;4982901;28;20550;-60
2022/09/04 07:42:05;;;;;;;4.33;4.00;;;;;;;;;;5002449;28;20186;-59
2022/09/04 07:44:53;;;;;;;4.10;3.80;;;;;;;;;;4993793;28;20731;-59
2022/09/04 07:47:23;;;;;;;4.03;3.73;;;;;;;;;;4989545;28;20603;-59
2022/09/04 07:50:00;;;;;;;4.03;3.73;;;;;;;;;;4989830;28;20191;-60
2022/09/04 07:52:45;;;;;;;4.10;3.80;;;;;;;;;;5008674;28;20317;-60
2022/09/04 07:55:12;;;;;;;5.30;4.00;;;;;;;;;;4989748;28;20186;-59
2022/09/04 07:57:49;;;;;;;3.87;3.57;;;;;;;;;;4981959;28;20185;-57
2022/09/04 08:00:16;;;;;;;4.40;4.00;;;;;;;;;;4984474;28;20206;-58
2022/09/04 08:03:01;;;;;;;4.67;4.33;;;;;;;;;;4990676;28;20195;-57
2022/09/04 08:05:27;;;;;;;4.67;3.83;;;;;;;;;;4963811;28;20206;-57
2022/09/04 08:08:00;;;;;;;4.90;4.47;;;;;;;;;;4979576;28;20565;-58
2022/09/04 08:10:44;;;;;;;4.23;3.93;;;;;;;;;;4999100;28;20209;-58
2022/09/04 08:13:21;;;;;;;4.37;3.97;;;;;;;;;;4993597;28;20176;-58
2022/09/04 08:16:05;;;;;;;4.83;4.43;;;;;;;;;;4998254;28;20206;-58
2022/09/04 08:18:42;;;;;;;4.43;3.60;;;;;;;;;;4985426;28;20634;-58
2022/09/04 08:21:19;;;;;;;4.00;3.80;;;;;;;;;;4987115;28;20205;-58
2022/09/04 08:24:04;;;;;;;4.93;4.47;;;;;;;;;;4975786;28;20189;-58
2022/09/04 08:26:47;;;;;;;4.07;3.77;;;;;;;;;;4987880;28;20187;-58
2022/09/04 08:29:13;;;;;;;4.00;3.80;;;;;;;;;;4996785;28;20207;-58
2022/09/04 08:31:54;;;;;;;4.07;3.73;;;;;;;;;;4991669;28;20215;-58
2022/09/04 08:34:26;;;;;;;4.37;3.97;;;;;;;;;;4984981;28;20226;-59
2022/09/04 08:37:18;;;;;;;4.87;4.37;;;;;;;;;;4997921;28;20206;-60
2022/09/04 08:39:44;;;;;;;4.40;4.10;;;;;;;;;;4985518;28;20672;-59
2022/09/04 08:42:30;;;;;;;4.30;4.00;;;;;;;;;;5009717;28;20561;-59
2022/09/04 08:45:12;;;;;;;4.38;4.07;;;;;;;;;;4990065;28;20182;-60
2022/09/04 08:47:51;;;;;;;3.90;3.70;;;;;;;;;;4989144;28;20258;-59
2022/09/04 08:50:22;;;;;;;4.25;3.90;;;;;;;;;;4987116;28;20658;-59
2022/09/04 08:52:54;;;;;;;4.18;3.97;;;;;;;;;;5008776;28;20172;-59
2022/09/04 08:55:45;;;;;;;4.65;4.00;;;;;;;;;;4987680;28;20194;-59
2022/09/04 08:58:26;;;;;;;4.13;3.83;;;;;;;;;;4971066;28;20246;-59
2022/09/04 09:01:10;;;;;;;4.45;4.05;;;;;;;;;;4988595;28;20551;-59
2022/09/04 09:03:36;;;;;;;9.10;3.70;;;;;;;;;;4970938;28;20191;-59
2022/09/04 09:06:17;;;;;;;4.47;4.18;;;;;;;;;;4998671;28;20274;-59
2022/09/04 09:08:46;;;;;;;4.25;3.95;;;;;;;;;;4996602;28;20698;-59
2022/09/04 09:11:49;;;;;;;4.55;4.18;;;;;;;;;;4976346;28;20495;-59
2022/09/04 09:14:34;;;;;;;4.53;4.22;;;;;;;;;;4931142;29;20667;-59
2022/09/04 09:17:15;;;;;;;4.72;4.32;;;;;;;;;;4990217;28;20183;-59
2022/09/04 09:19:46;;;;;;;4.53;3.63;;;;;;;;;;4992851;28;20539;-59
2022/09/04 09:22:32;;;;;;;4.40;4.10;;;;;;;;;;4997499;28;20187;-59
2022/09/04 09:25:04;;;;;;;4.70;4.33;;;;;;;;;;4988723;28;20605;-59
2022/09/04 09:27:31;;;;;;;4.60;4.20;;;;;;;;;;4986034;28;20183;-60
2022/09/04 09:30:12;;;;;;;4.57;4.27;;;;;;;;;;5003336;28;20245;-59
2022/09/04 09:32:56;;;;;;;4.23;3.93;;;;;;;;;;4952485;28;20170;-59
2022/09/04 09:35:28;;;;;;;4.40;4.10;;;;;;;;;;4969853;28;20178;-59
2022/09/04 09:38:00;;;;;;;3.90;3.60;;;;;;;;;;4987370;28;20179;-59
2022/09/04 09:40:40;;;;;;;4.23;3.90;;;;;;;;;;4971873;28;20178;-59
2022/09/04 09:43:10;;;;;;;5.37;4.00;;;;;;;;;;4973262;28;20224;-59
2022/09/04 09:45:48;;;;;;;4.53;4.13;;;;;;;;;;4989391;28;20176;-59
2022/09/04 09:48:28;;;;;;;5.32;4.10;;;;;;;;;;4996376;28;20423;-59
2022/09/04 09:50:54;;;;;;;4.33;4.00;;;;;;;;;;4989950;28;20208;-59
2022/09/04 09:53:23;;;;;;;4.60;4.20;;;;;;;;;;4986349;28;20172;-59
2022/09/04 09:56:00;;;;;;;4.13;3.83;;;;;;;;;;4987433;28;20179;-59
2022/09/04 09:58:45;;;;;;;4.67;4.27;;;;;;;;;;4972557;28;20192;-59
2022/09/04 10:01:29;;;;;;;4.80;4.40;;;;;;;;;;4986757;28;20219;-57
2022/09/04 10:04:10;;;;;;;4.80;3.77;;;;;;;;;;4985957;28;20188;-56
2022/09/04 10:06:51;;;;;;;4.30;3.90;;;;;;;;;;4986754;28;20680;-57
2022/09/04 10:09:23;;;;;;;5.00;4.60;;;;;;;;;;4985997;28;20812;-56
2022/09/04 10:11:52;;;;;;;5.87;4.43;;;;;;;;;;4990850;28;20245;-56
2022/09/04 10:14:45;;;;;;;6.60;4.33;;;;;;;;;;4988071;28;20657;-57
2022/09/04 10:17:14;;;;;;;5.17;4.67;;;;;;;;;;4985636;28;20197;-56
2022/09/04 10:19:50;;;;;;;7.87;3.83;;;;;;;;;;4980778;28;20195;-56
2022/09/04 10:22:19;;;;;;;4.30;4.00;;;;;;;;;;4987312;28;20264;-57
2022/09/04 10:25:04;;;;;;;8.83;4.97;;;;;;;;;;4985954;28;20174;-56
2022/09/04 10:27:31;;;;;;;4.53;4.13;;;;;;;;;;4986803;28;20186;-57
2022/09/04 10:30:15;;;;;;;4.00;3.70;;;;;;;;;;4984577;28;20738;-57
2022/09/04 10:32:42;;;;;;;5.10;4.67;;;;;;;;;;4982087;28;20197;-58
2022/09/04 10:35:11;;;;;;;4.27;3.90;;;;;;;;;;4985266;28;20185;-57
2022/09/04 10:37:43;;;;;;;4.67;4.27;;;;;;;;;;4985764;28;20185;-57
2022/09/04 10:40:34;;;;;;;4.10;3.80;;;;;;;;;;4974405;28;20273;-56
2022/09/04 10:43:08;;;;;;;5.70;4.35;;;;;;;;;;4986910;28;20915;-57
2022/09/04 10:45:34;;;;;;;4.53;4.13;;;;;;;;;;4986485;28;20788;-57
2022/09/04 10:48:11;;;;;;;3.93;3.70;;;;;;;;;;4982901;28;20811;-56
2022/09/04 10:51:01;;;;;;;4.33;3.77;;;;;;;;;;4988210;28;20200;-57
2022/09/04 10:53:50;;;;;;;5.43;3.60;;;;;;;;;;4983678;28;20210;-57
2022/09/04 10:56:25;;;;;;;4.37;3.97;;;;;;;;;;4981184;28;20175;-56
2022/09/04 10:59:03;;;;;;;3.80;3.50;;;;;;;;;;4980182;28;20162;-56
2022/09/04 11:01:29;;;;;;;3.93;3.60;;;;;;;;;;4988996;28;20835;-57
2022/09/04 11:04:12;;;;;;;4.03;3.73;;;;;;;;;;4984494;28;20181;-56
2022/09/04 11:06:48;;;;;;;4.00;3.70;;;;;;;;;;4979573;28;20217;-57
2022/09/04 11:09:14;;;;;;;4.07;3.67;;;;;;;;;;4986710;28;20181;-57
2022/09/04 11:11:51;;;;;;;4.93;4.57;;;;;;;;;;4986629;28;20219;-57
2022/09/04 11:14:27;;;;;;;4.57;4.17;;;;;;;;;;4983917;28;20657;-57
2022/09/04 11:17:06;;;;;;;5.20;3.93;;;;;;;;;;4985231;28;20177;-57
2022/09/04 11:19:44;;;;;;;4.43;3.77;;;;;;;;;;4979374;28;20964;-57
2022/09/04 11:22:33;;;;;;;5.13;3.77;;;;;;;;;;4975465;28;20186;-57
2022/09/04 11:25:18;;;;;;;4.37;3.97;;;;;;;;;;4968617;28;20657;-57
2022/09/04 11:27:48;;;;;;;4.00;3.70;;;;;;;;;;4981529;28;20183;-56
2022/09/04 11:30:30;;;;;;;5.33;4.20;;;;;;;;;;4980336;28;20843;-57
2022/09/04 11:33:05;;;;;;;5.27;3.70;;;;;;;;;;4982719;28;20233;-57
2022/09/04 11:35:35;;;;;;;4.37;4.07;;;;;;;;;;4981624;28;20268;-57
2022/09/04 11:38:10;;;;;;;3.67;3.47;;;;;;;;;;4980674;28;20202;-57
2022/09/04 11:41:02;;;;;;;4.77;4.37;;;;;;;;;;4987870;28;20256;-57
2022/09/04 11:43:46;;;;;;;5.43;3.93;;;;;;;;;;4980852;28;20236;-57
2022/09/04 11:46:26;;;;;;;4.10;3.80;;;;;;;;;;4970979;28;20526;-56
2022/09/04 11:49:12;;;;;;;4.50;4.10;;;;;;;;;;4988128;28;20195;-56
2022/09/04 11:51:44;;;;;;;7.13;4.30;;;;;;;;;;4987861;28;20199;-57
2022/09/04 11:54:31;;;;;;;4.50;4.10;;;;;;;;;;4991643;28;20184;-57
2022/09/04 11:57:03;;;;;;;3.97;3.70;;;;;;;;;;4991123;28;20696;-56
2022/09/04 11:59:32;;;;;;;5.23;4.93;;;;;;;;;;4993884;28;20651;-56
2022/09/04 12:02:01;;;;;;;3.80;3.43;;;;;;;;;;4987823;28;20193;-57
2022/09/04 12:04:42;;;;;;;3.53;3.30;;;;;;;;;;4984467;28;20724;-57
2022/09/04 12:07:30;;;;;;;5.37;3.50;;;;;;;;;;4981766;28;20182;-57
2022/09/04 12:10:15;;;;;;;5.13;4.07;;;;;;;;;;4979905;28;20650;-56
2022/09/04 12:12:44;;;;;;;4.00;3.70;;;;;;;;;;4982817;28;20208;-56
2022/09/04 12:15:10;;;;;;;7.57;3.83;;;;;;;;;;4985146;28;20281;-56
2022/09/04 12:17:39;;;;;;;4.57;3.60;;;;;;;;;;4989065;28;20338;-56
2022/09/04 12:20:08;;;;;;;4.70;4.30;;;;;;;;;;4986905;28;20529;-56
2022/09/04 12:22:53;;;;;;;3.47;3.10;;;;;;;;;;4987275;28;20210;-57
2022/09/04 12:25:31;;;;;;;3.50;2.93;;;;;;;;;;4986350;28;20212;-57
2022/09/04 12:28:10;;;;;;;3.70;3.40;;;;;;;;;;4981637;28;20185;-56
2022/09/04 12:30:51;;;;;;;3.87;3.20;;;;;;;;;;4988136;28;20212;-56
2022/09/04 12:33:27;;;;;;;3.20;3.00;;;;;;;;;;4994315;28;20187;-56
2022/09/04 12:36:13;;;;;;;3.80;3.50;;;;;;;;;;4978902;28;20257;-56
2022/09/04 12:38:48;;;;;;;3.43;3.13;;;;;;;;;;4983820;28;20168;-55
2022/09/04 12:41:17;;;;;;;3.23;3.03;;;;;;;;;;4988503;28;20655;-56
2022/09/04 12:43:47;;;;;;;3.90;3.37;;;;;;;;;;4986632;28;20226;-59
2022/09/04 12:46:20;;;;;;;3.33;3.13;;;;;;;;;;4974667;28;20602;-56
2022/09/04 12:48:55;;;;;;;4.00;2.60;;;;;;;;;;4971814;28;20198;-55
2022/09/04 12:51:24;;;;;;;5.13;3.00;;;;;;;;;;4977560;28;20218;-56
2022/09/04 12:53:52;;;;;;;3.00;2.80;;;;;;;;;;4975130;28;20291;-56
2022/09/04 12:56:29;;;;;;;3.55;2.67;;;;;;;;;;4966800;28;20707;-56
2022/09/04 12:59:00;;;;;;;4.82;3.13;;;;;;;;;;4969833;28;20187;-55
2022/09/04 13:01:29;;;;;;;3.15;2.78;;;;;;;;;;4970009;28;20313;-56
2022/09/04 13:04:00;;;;;;;2.97;2.72;;;;;;;;;;4971976;28;20215;-55
2022/09/04 13:06:33;;;;;;;3.45;3.15;;;;;;;;;;4954926;28;20527;-55
2022/09/04 13:08:59;;;;;;;3.33;2.80;;;;;;;;;;4963764;28;20246;-55
2022/09/04 13:11:49;;;;;;;3.33;2.90;;;;;;;;;;4963268;28;20296;-55
2022/09/04 13:14:28;;;;;;;3.00;2.80;;;;;;;;;;4952316;28;20181;-54
2022/09/04 13:17:13;;;;;;;3.08;2.88;;;;;;;;;;4972159;28;20694;-55
2022/09/04 13:19:45;;;;;;;5.68;2.97;;;;;;;;;;4969418;28;21134;-55
2022/09/04 13:22:18;;;;;;;3.00;2.80;;;;;;;;;;4978865;28;20310;-56
2022/09/04 13:24:56;;;;;;;3.90;2.72;;;;;;;;;;4973536;28;20179;-55
2022/09/04 13:27:28;;;;;;;4.78;2.80;;;;;;;;;;4961443;28;20191;-55
2022/09/04 13:30:00;;;;;;;3.58;2.78;;;;;;;;;;4969548;28;20203;-55
2022/09/04 13:32:42;;;;;;;3.50;2.97;;;;;;;;;;4970361;28;20211;-56
2022/09/04 13:35:17;;;;;;;2.70;2.50;;;;;;;;;;4972559;28;20172;-57
2022/09/04 13:37:50;;;;;;;2.90;2.70;;;;;;;;;;4964012;28;20227;-56
2022/09/04 13:40:19;;;;;;;3.03;2.83;;;;;;;;;;4973315;28;20176;-56
2022/09/04 13:43:04;;;;;;;3.03;2.77;;;;;;;;;;4972408;28;20303;-56
2022/09/04 13:45:38;;;;;;;3.47;3.17;;;;;;;;;;4992327;28;20286;-56
2022/09/04 13:48:07;;;;;;;4.10;2.80;;;;;;;;;;4973584;28;20540;-55
2022/09/04 13:50:45;;;;;;;3.20;3.00;;;;;;;;;;4989999;28;20299;-55
2022/09/04 13:53:15;;;;;;;3.83;3.47;;;;;;;;;;4987493;28;20170;-57
2022/09/04 13:55:44;;;;;;;4.80;2.87;;;;;;;;;;4989051;28;20196;-56
2022/09/04 13:58:14;;;;;;;5.73;3.07;;;;;;;;;;4987403;28;20654;-55
2022/09/04 14:00:44;;;;;;;3.07;2.87;;;;;;;;;;4991354;28;20182;-56
2022/09/04 14:03:12;;;;;;;7.23;6.83;;;;;;;;;;4999754;28;20179;-57
2022/09/04 14:05:38;;;;;;;5.23;3.07;;;;;;;;;;4984002;28;20204;-56
2022/09/04 14:08:07;;;;;;;5.00;3.00;;;;;;;;;;4987175;28;20198;-56
2022/09/04 14:10:33;;;;;;;4.00;3.40;;;;;;;;;;4964295;28;20220;-56
2022/09/04 14:13:14;;;;;;;3.10;2.90;;;;;;;;;;4983903;28;20599;-56
2022/09/04 14:15:44;;;;;;;3.43;3.17;;;;;;;;;;4990988;28;20510;-57
2022/09/04 14:18:30;;;;;;;7.87;3.60;;;;;;;;;;4975772;28;20180;-57
2022/09/04 14:20:57;;;;;;;3.50;3.20;;;;;;;;;;4998212;28;20452;-56
2022/09/04 14:23:41;;;;;;;4.67;4.40;;;;;;;;;;4973480;28;20190;-57
2022/09/04 14:26:35;;;;;;;3.63;3.33;;;;;;;;;;4987811;28;20184;-56
2022/09/04 14:29:04;;;;;;;3.10;2.90;;;;;;;;;;4982889;28;20186;-56
2022/09/04 14:31:40;;;;;;;3.73;3.13;;;;;;;;;;4970988;28;20208;-57
2022/09/04 14:34:20;;;;;;;3.73;3.47;;;;;;;;;;4975060;28;20220;-57
2022/09/04 14:36:48;;;;;;;4.07;3.67;;;;;;;;;;4996097;28;20186;-57
2022/09/04 14:39:19;;;;;;;3.70;2.93;;;;;;;;;;4971743;28;20183;-58
2022/09/04 14:41:54;;;;;;;3.80;3.00;;;;;;;;;;5005648;28;20273;-57
2022/09/04 14:44:31;;;;;;;5.00;2.93;;;;;;;;;;4995780;28;20285;-57
2022/09/04 14:47:18;;;;;;;3.77;3.00;;;;;;;;;;4972491;28;20236;-57
2022/09/04 14:49:46;;;;;;;3.20;3.00;;;;;;;;;;4983609;28;20206;-57
2022/09/04 14:52:18;;;;;;;4.00;3.70;;;;;;;;;;4984789;28;20296;-56
2022/09/04 14:54:46;;;;;;;3.17;2.97;;;;;;;;;;4961951;28;20240;-56
2022/09/04 14:57:20;;;;;;;2.90;2.70;;;;;;;;;;4971678;28;20560;-56
2022/09/04 14:59:51;;;;;;;8.37;3.30;;;;;;;;;;4990741;28;20447;-56
2022/09/04 15:02:33;;;;;;;3.33;2.90;;;;;;;;;;4970413;28;20449;-56
2022/09/04 15:05:19;;;;;;;5.47;3.20;;;;;;;;;;4983155;28;20213;-56
2022/09/04 15:07:56;;;;;;;3.30;3.10;;;;;;;;;;4974615;28;20194;-55
2022/09/04 15:10:45;;;;;;;3.40;3.10;;;;;;;;;;4982655;28;20212;-56
2022/09/04 15:13:38;;;;;;;3.30;3.10;;;;;;;;;;4982943;28;20185;-56
2022/09/04 15:16:10;;;;;;;7.33;3.30;;;;;;;;;;4988663;28;20202;-56
2022/09/04 15:18:49;;;;;;;3.63;3.43;;;;;;;;;;4992753;28;20642;-56
2022/09/04 15:21:31;;;;;;;3.60;3.30;;;;;;;;;;4998703;28;20649;-56
2022/09/04 15:24:03;;;;;;;3.50;3.20;;;;;;;;;;4978804;28;20174;-56
2022/09/04 15:26:43;;;;;;;3.55;3.25;;;;;;;;;;4973204;28;20218;-56
2022/09/04 15:29:27;;;;;;;7.22;3.15;;;;;;;;;;4992369;28;20632;-56
2022/09/04 15:32:06;;;;;;;2.95;2.75;;;;;;;;;;4990547;28;20256;-56
2022/09/04 15:34:33;;;;;;;3.15;2.95;;;;;;;;;;4997269;28;20301;-57
2022/09/04 15:37:31;;;;;;;3.13;2.53;;;;;;;;;;4972527;28;20182;-57